Cherokee, North Carolina
Current Conditions -  °F | °C
As of 7:15 PM on Sunday 25 Jan 2015 (Local Time) from KGKT Reporting Station
Overcast Overcast  
Wind Chill: 45°   Ceiling: 7000
Heat Index: 48°   Visibility: 10mi
Dew Point: 32°   Wind: 7mph
Humidity: 54%   Direction: 320°NW
Pressure: 29.74"   Gusts: NA
Location:  35.47°N, 83.31°W
Report Text: KGKT 260015Z AUTO 32006KT 10SM FEW060 OVC070 09/00 A2974 RMK
Loading
Personal Weather Stations






























Interactive Weather Map New forecast layout! Learn more

10-Day Weather Forecast

Advertisements
Track Severe Weather on mobile